sensor_id;sensor_type;location;lat;lon;timestamp;temperature;humidity
84340;SHT30;74521;45.618;5.212;2024-01-10T00:02:02;19.50;46.78
84340;SHT30;74521;45.618;5.212;2024-01-10T00:04:29;19.51;46.83
84340;SHT30;74521;45.618;5.212;2024-01-10T00:06:55;19.51;46.79
84340;SHT30;74521;45.618;5.212;2024-01-10T00:09:22;19.51;46.91
84340;SHT30;74521;45.618;5.212;2024-01-10T00:11:49;19.47;47.04
84340;SHT30;74521;45.618;5.212;2024-01-10T00:14:16;19.51;47.03
84340;SHT30;74521;45.618;5.212;2024-01-10T00:16:44;19.48;46.95
84340;SHT30;74521;45.618;5.212;2024-01-10T00:19:10;19.51;46.92
84340;SHT30;74521;45.618;5.212;2024-01-10T00:21:37;19.50;46.85
84340;SHT30;74521;45.618;5.212;2024-01-10T00:24:04;19.48;46.96
84340;SHT30;74521;45.618;5.212;2024-01-10T00:26:31;19.48;46.97
84340;SHT30;74521;45.618;5.212;2024-01-10T00:28:57;19.48;47.04
84340;SHT30;74521;45.618;5.212;2024-01-10T00:31:24;19.48;46.96
84340;SHT30;74521;45.618;5.212;2024-01-10T00:33:52;19.50;46.96
84340;SHT30;74521;45.618;5.212;2024-01-10T00:36:19;19.47;47.18
84340;SHT30;74521;45.618;5.212;2024-01-10T00:38:46;19.48;47.10
84340;SHT30;74521;45.618;5.212;2024-01-10T00:41:12;19.50;47.16
84340;SHT30;74521;45.618;5.212;2024-01-10T00:43:39;19.50;47.07
84340;SHT30;74521;45.618;5.212;2024-01-10T00:46:06;19.51;47.01
84340;SHT30;74521;45.618;5.212;2024-01-10T00:48:33;19.53;47.00
84340;SHT30;74521;45.618;5.212;2024-01-10T00:51:01;19.51;47.00
84340;SHT30;74521;45.618;5.212;2024-01-10T00:53:27;19.51;46.89
84340;SHT30;74521;45.618;5.212;2024-01-10T00:55:54;19.51;46.91
84340;SHT30;74521;45.618;5.212;2024-01-10T00:58:21;19.50;47.04
84340;SHT30;74521;45.618;5.212;2024-01-10T01:00:47;19.50;46.99
84340;SHT30;74521;45.618;5.212;2024-01-10T01:03:14;19.50;46.98
84340;SHT30;74521;45.618;5.212;2024-01-10T01:05:41;19.50;46.99
84340;SHT30;74521;45.618;5.212;2024-01-10T01:08:09;19.50;47.33
84340;SHT30;74521;45.618;5.212;2024-01-10T01:10:35;19.50;47.29
84340;SHT30;74521;45.618;5.212;2024-01-10T01:13:02;19.53;47.21
84340;SHT30;74521;45.618;5.212;2024-01-10T01:15:28;19.51;47.17
84340;SHT30;74521;45.618;5.212;2024-01-10T01:17:55;19.53;47.11
84340;SHT30;74521;45.618;5.212;2024-01-10T01:20:22;19.54;47.05
84340;SHT30;74521;45.618;5.212;2024-01-10T01:22:49;19.54;47.05
84340;SHT30;74521;45.618;5.212;2024-01-10T01:25:17;19.54;47.06
84340;SHT30;74521;45.618;5.212;2024-01-10T01:27:43;19.53;47.02
84340;SHT30;74521;45.618;5.212;2024-01-10T01:30:11;19.51;47.10
84340;SHT30;74521;45.618;5.212;2024-01-10T01:32:38;19.54;47.07
84340;SHT30;74521;45.618;5.212;2024-01-10T01:35:05;19.50;47.06
84340;SHT30;74521;45.618;5.212;2024-01-10T01:37:32;19.50;47.13
84340;SHT30;74521;45.618;5.212;2024-01-10T01:39:58;19.50;47.17
84340;SHT30;74521;45.618;5.212;2024-01-10T01:42:26;19.51;47.43
84340;SHT30;74521;45.618;5.212;2024-01-10T01:44:53;19.50;47.34
84340;SHT30;74521;45.618;5.212;2024-01-10T01:47:20;19.53;47.27
84340;SHT30;74521;45.618;5.212;2024-01-10T01:49:47;19.51;47.17
84340;SHT30;74521;45.618;5.212;2024-01-10T01:52:13;19.53;47.12
84340;SHT30;74521;45.618;5.212;2024-01-10T01:54:40;19.51;47.13
84340;SHT30;74521;45.618;5.212;2024-01-10T01:57:07;19.53;47.19
84340;SHT30;74521;45.618;5.212;2024-01-10T01:59:35;19.53;47.18
84340;SHT30;74521;45.618;5.212;2024-01-10T02:02:03;19.53;47.14
84340;SHT30;74521;45.618;5.212;2024-01-10T02:04:31;19.53;47.13
84340;SHT30;74521;45.618;5.212;2024-01-10T02:06:57;19.50;47.07
84340;SHT30;74521;45.618;5.212;2024-01-10T02:09:24;19.51;47.25
84340;SHT30;74521;45.618;5.212;2024-01-10T02:11:51;19.48;47.55
84340;SHT30;74521;45.618;5.212;2024-01-10T02:14:19;19.51;47.52
84340;SHT30;74521;45.618;5.212;2024-01-10T02:16:47;19.51;47.41
84340;SHT30;74521;45.618;5.212;2024-01-10T02:19:20;19.50;47.35
84340;SHT30;74521;45.618;5.212;2024-01-10T02:21:47;19.53;47.27
84340;SHT30;74521;45.618;5.212;2024-01-10T02:24:14;19.54;47.21
84340;SHT30;74521;45.618;5.212;2024-01-10T02:26:42;19.53;47.20
84340;SHT30;74521;45.618;5.212;2024-01-10T02:29:08;19.53;47.23
84340;SHT30;74521;45.618;5.212;2024-01-10T02:31:35;19.54;47.22
84340;SHT30;74521;45.618;5.212;2024-01-10T02:34:02;19.53;47.23
84340;SHT30;74521;45.618;5.212;2024-01-10T02:36:28;19.51;47.25
84340;SHT30;74521;45.618;5.212;2024-01-10T02:38:55;19.53;47.32
84340;SHT30;74521;45.618;5.212;2024-01-10T02:41:21;19.51;47.25
84340;SHT30;74521;45.618;5.212;2024-01-10T02:43:49;19.53;47.53
84340;SHT30;74521;45.618;5.212;2024-01-10T02:46:16;19.54;47.50
84340;SHT30;74521;45.618;5.212;2024-01-10T02:48:44;19.54;47.42
84340;SHT30;74521;45.618;5.212;2024-01-10T02:51:10;19.55;47.31
84340;SHT30;74521;45.618;5.212;2024-01-10T02:53:37;19.51;47.28
84340;SHT30;74521;45.618;5.212;2024-01-10T02:56:04;19.54;47.25
84340;SHT30;74521;45.618;5.212;2024-01-10T02:58:31;19.54;47.23
84340;SHT30;74521;45.618;5.212;2024-01-10T03:00:59;19.55;47.25
84340;SHT30;74521;45.618;5.212;2024-01-10T03:03:26;19.54;47.22
84340;SHT30;74521;45.618;5.212;2024-01-10T03:05:53;19.54;47.20
84340;SHT30;74521;45.618;5.212;2024-01-10T03:08:20;19.53;47.22
84340;SHT30;74521;45.618;5.212;2024-01-10T03:10:46;19.54;47.20
84340;SHT30;74521;45.618;5.212;2024-01-10T03:13:13;19.51;47.30
84340;SHT30;74521;45.618;5.212;2024-01-10T03:15:39;19.53;47.52
84340;SHT30;74521;45.618;5.212;2024-01-10T03:18:07;19.54;47.59
84340;SHT30;74521;45.618;5.212;2024-01-10T03:20:34;19.55;47.46
84340;SHT30;74521;45.618;5.212;2024-01-10T03:23:01;19.55;47.44
84340;SHT30;74521;45.618;5.212;2024-01-10T03:25:27;19.54;47.36
84340;SHT30;74521;45.618;5.212;2024-01-10T03:27:54;19.55;47.31
84340;SHT30;74521;45.618;5.212;2024-01-10T03:30:21;19.55;47.31
84340;SHT30;74521;45.618;5.212;2024-01-10T03:32:49;19.53;47.27
84340;SHT30;74521;45.618;5.212;2024-01-10T03:35:17;19.53;47.28
84340;SHT30;74521;45.618;5.212;2024-01-10T03:37:44;19.53;47.31
84340;SHT30;74521;45.618;5.212;2024-01-10T03:40:11;19.54;47.33
84340;SHT30;74521;45.618;5.212;2024-01-10T03:42:38;19.53;47.26
84340;SHT30;74521;45.618;5.212;2024-01-10T03:45:05;19.54;47.31
84340;SHT30;74521;45.618;5.212;2024-01-10T03:47:32;19.53;47.57
84340;SHT30;74521;45.618;5.212;2024-01-10T03:49:58;19.53;47.58
84340;SHT30;74521;45.618;5.212;2024-01-10T03:52:26;19.53;47.46
84340;SHT30;74521;45.618;5.212;2024-01-10T03:54:53;19.54;47.45
84340;SHT30;74521;45.618;5.212;2024-01-10T03:57:20;19.57;47.40
84340;SHT30;74521;45.618;5.212;2024-01-10T03:59:47;19.55;47.38
84340;SHT30;74521;45.618;5.212;2024-01-10T04:02:13;19.55;47.36
84340;SHT30;74521;45.618;5.212;2024-01-10T04:04:40;19.55;47.33
84340;SHT30;74521;45.618;5.212;2024-01-10T04:07:06;19.55;47.34
84340;SHT30;74521;45.618;5.212;2024-01-10T04:09:35;19.57;47.35
84340;SHT30;74521;45.618;5.212;2024-01-10T04:12:02;19.55;47.30
84340;SHT30;74521;45.618;5.212;2024-01-10T04:14:28;19.55;47.31
84340;SHT30;74521;45.618;5.212;2024-01-10T04:16:55;19.54;47.37
84340;SHT30;74521;45.618;5.212;2024-01-10T04:19:22;19.57;47.38
84340;SHT30;74521;45.618;5.212;2024-01-10T04:21:48;19.55;47.52
84340;SHT30;74521;45.618;5.212;2024-01-10T04:24:15;19.54;47.54
84340;SHT30;74521;45.618;5.212;2024-01-10T04:26:43;19.55;47.44
84340;SHT30;74521;45.618;5.212;2024-01-10T04:29:10;19.57;47.44
84340;SHT30;74521;45.618;5.212;2024-01-10T04:31:36;19.58;47.35
84340;SHT30;74521;45.618;5.212;2024-01-10T04:34:03;19.57;47.30
84340;SHT30;74521;45.618;5.212;2024-01-10T04:36:30;19.57;47.29
84340;SHT30;74521;45.618;5.212;2024-01-10T04:38:56;19.58;47.30
84340;SHT30;74521;45.618;5.212;2024-01-10T04:41:23;19.57;47.27
84340;SHT30;74521;45.618;5.212;2024-01-10T04:43:52;19.55;47.32
84340;SHT30;74521;45.618;5.212;2024-01-10T04:46:19;19.55;47.33
84340;SHT30;74521;45.618;5.212;2024-01-10T04:48:45;19.57;47.28
84340;SHT30;74521;45.618;5.212;2024-01-10T04:51:12;19.57;47.30
84340;SHT30;74521;45.618;5.212;2024-01-10T04:53:40;19.53;47.56
84340;SHT30;74521;45.618;5.212;2024-01-10T04:56:06;19.54;47.62
84340;SHT30;74521;45.618;5.212;2024-01-10T04:58:33;19.55;47.48
84340;SHT30;74521;45.618;5.212;2024-01-10T05:01:01;19.55;47.43
84340;SHT30;74521;45.618;5.212;2024-01-10T05:03:28;19.55;47.40
84340;SHT30;74521;45.618;5.212;2024-01-10T05:05:55;19.57;47.33
84340;SHT30;74521;45.618;5.212;2024-01-10T05:08:21;19.57;47.38
84340;SHT30;74521;45.618;5.212;2024-01-10T05:10:48;19.55;47.33
84340;SHT30;74521;45.618;5.212;2024-01-10T05:13:15;19.57;47.21
84340;SHT30;74521;45.618;5.212;2024-01-10T05:15:42;19.57;47.26
84340;SHT30;74521;45.618;5.212;2024-01-10T05:18:10;19.55;47.20
84340;SHT30;74521;45.618;5.212;2024-01-10T05:20:37;19.55;47.24
84340;SHT30;74521;45.618;5.212;2024-01-10T05:23:04;19.57;47.32
84340;SHT30;74521;45.618;5.212;2024-01-10T05:25:30;19.55;47.35
84340;SHT30;74521;45.618;5.212;2024-01-10T05:27:57;19.53;47.36
84340;SHT30;74521;45.618;5.212;2024-01-10T05:30:24;19.53;47.35
84340;SHT30;74521;45.618;5.212;2024-01-10T05:32:53;19.54;47.25
84340;SHT30;74521;45.618;5.212;2024-01-10T05:35:21;19.54;47.27
84340;SHT30;74521;45.618;5.212;2024-01-10T05:37:48;19.55;47.25
84340;SHT30;74521;45.618;5.212;2024-01-10T05:40:15;19.54;47.18
84340;SHT30;74521;45.618;5.212;2024-01-10T05:42:42;19.53;47.17
84340;SHT30;74521;45.618;5.212;2024-01-10T05:45:09;19.54;47.16
84340;SHT30;74521;45.618;5.212;2024-01-10T05:47:35;19.54;47.11
84340;SHT30;74521;45.618;5.212;2024-01-10T05:50:02;19.53;47.05
84340;SHT30;74521;45.618;5.212;2024-01-10T05:52:33;19.53;47.00
84340;SHT30;74521;45.618;5.212;2024-01-10T05:54:59;19.53;47.03
84340;SHT30;74521;45.618;5.212;2024-01-10T05:57:27;19.50;47.05
84340;SHT30;74521;45.618;5.212;2024-01-10T05:59:54;19.51;47.03
84340;SHT30;74521;45.618;5.212;2024-01-10T06:02:22;19.53;46.99
84340;SHT30;74521;45.618;5.212;2024-01-10T06:04:49;19.54;47.07
84340;SHT30;74521;45.618;5.212;2024-01-10T06:07:16;19.51;47.05
84340;SHT30;74521;45.618;5.212;2024-01-10T06:09:44;19.54;47.01
84340;SHT30;74521;45.618;5.212;2024-01-10T06:12:10;19.54;47.03
84340;SHT30;74521;45.618;5.212;2024-01-10T06:14:37;19.53;46.98
84340;SHT30;74521;45.618;5.212;2024-01-10T06:17:04;19.54;46.90
84340;SHT30;74521;45.618;5.212;2024-01-10T06:19:31;19.54;46.82
84340;SHT30;74521;45.618;5.212;2024-01-10T06:21:58;19.51;46.85
84340;SHT30;74521;45.618;5.212;2024-01-10T06:24:25;19.51;46.78
84340;SHT30;74521;45.618;5.212;2024-01-10T06:26:53;19.51;46.77
84340;SHT30;74521;45.618;5.212;2024-01-10T06:29:36;19.50;46.80
84340;SHT30;74521;45.618;5.212;2024-01-10T06:32:06;19.50;46.73
84340;SHT30;74521;45.618;5.212;2024-01-10T06:34:33;19.50;46.79
84340;SHT30;74521;45.618;5.212;2024-01-10T06:36:59;19.50;46.76
84340;SHT30;74521;45.618;5.212;2024-01-10T06:39:26;19.53;46.71
84340;SHT30;74521;45.618;5.212;2024-01-10T06:41:54;19.53;46.66
84340;SHT30;74521;45.618;5.212;2024-01-10T06:44:23;19.50;46.67
84340;SHT30;74521;45.618;5.212;2024-01-10T06:46:51;19.53;46.67
84340;SHT30;74521;45.618;5.212;2024-01-10T06:49:18;19.51;46.65
84340;SHT30;74521;45.618;5.212;2024-01-10T06:51:44;19.50;46.63
84340;SHT30;74521;45.618;5.212;2024-01-10T06:54:11;19.51;46.56
84340;SHT30;74521;45.618;5.212;2024-01-10T06:56:39;19.48;46.57
84340;SHT30;74521;45.618;5.212;2024-01-10T06:59:07;19.46;46.60
84340;SHT30;74521;45.618;5.212;2024-01-10T07:01:35;19.47;46.67
84340;SHT30;74521;45.618;5.212;2024-01-10T07:04:02;19.48;46.67
84340;SHT30;74521;45.618;5.212;2024-01-10T07:06:30;19.50;46.71
84340;SHT30;74521;45.618;5.212;2024-01-10T07:08:56;19.50;46.69
84340;SHT30;74521;45.618;5.212;2024-01-10T07:11:24;19.51;46.65
84340;SHT30;74521;45.618;5.212;2024-01-10T07:13:53;19.50;46.71
84340;SHT30;74521;45.618;5.212;2024-01-10T07:16:21;19.48;46.68
84340;SHT30;74521;45.618;5.212;2024-01-10T07:18:48;19.50;46.68
84340;SHT30;74521;45.618;5.212;2024-01-10T07:21:17;19.48;46.66
84340;SHT30;74521;45.618;5.212;2024-01-10T07:23:43;19.50;46.66
84340;SHT30;74521;45.618;5.212;2024-01-10T07:26:12;19.50;46.71
84340;SHT30;74521;45.618;5.212;2024-01-10T07:28:41;19.47;46.62
84340;SHT30;74521;45.618;5.212;2024-01-10T07:31:08;19.47;46.71
84340;SHT30;74521;45.618;5.212;2024-01-10T07:33:36;19.47;46.72
84340;SHT30;74521;45.618;5.212;2024-01-10T07:36:03;19.47;46.76
84340;SHT30;74521;45.618;5.212;2024-01-10T07:38:30;19.48;46.82
84340;SHT30;74521;45.618;5.212;2024-01-10T07:40:56;19.48;46.78
84340;SHT30;74521;45.618;5.212;2024-01-10T07:43:24;19.48;46.75
84340;SHT30;74521;45.618;5.212;2024-01-10T07:45:52;19.48;46.79
84340;SHT30;74521;45.618;5.212;2024-01-10T07:48:19;19.47;46.74
84340;SHT30;74521;45.618;5.212;2024-01-10T07:50:47;19.48;46.72
84340;SHT30;74521;45.618;5.212;2024-01-10T07:53:14;19.48;46.76
84340;SHT30;74521;45.618;5.212;2024-01-10T07:55:41;19.50;46.68
84340;SHT30;74521;45.618;5.212;2024-01-10T07:58:07;19.47;46.77
84340;SHT30;74521;45.618;5.212;2024-01-10T08:00:34;19.47;46.75
84340;SHT30;74521;45.618;5.212;2024-01-10T08:03:01;19.46;46.73
84340;SHT30;74521;45.618;5.212;2024-01-10T08:05:29;19.47;46.85
84340;SHT30;74521;45.618;5.212;2024-01-10T08:07:57;19.47;46.84
84340;SHT30;74521;45.618;5.212;2024-01-10T08:10:23;19.50;46.86
84340;SHT30;74521;45.618;5.212;2024-01-10T08:12:52;19.50;46.84
84340;SHT30;74521;45.618;5.212;2024-01-10T08:15:19;19.51;46.84
84340;SHT30;74521;45.618;5.212;2024-01-10T08:17:46;19.51;46.82
84340;SHT30;74521;45.618;5.212;2024-01-10T08:20:12;19.51;46.84
84340;SHT30;74521;45.618;5.212;2024-01-10T08:22:40;19.51;46.77
84340;SHT30;74521;45.618;5.212;2024-01-10T08:25:10;19.51;46.78
84340;SHT30;74521;45.618;5.212;2024-01-10T08:27:38;19.48;46.75
84340;SHT30;74521;45.618;5.212;2024-01-10T08:30:05;19.50;46.79
84340;SHT30;74521;45.618;5.212;2024-01-10T08:32:35;19.50;46.77
84340;SHT30;74521;45.618;5.212;2024-01-10T08:35:02;19.47;46.77
84340;SHT30;74521;45.618;5.212;2024-01-10T08:37:30;19.50;46.78
84340;SHT30;74521;45.618;5.212;2024-01-10T08:39:55;19.50;46.82
84340;SHT30;74521;45.618;5.212;2024-01-10T08:42:23;19.48;46.85
84340;SHT30;74521;45.618;5.212;2024-01-10T08:44:50;19.50;46.83
84340;SHT30;74521;45.618;5.212;2024-01-10T08:47:17;19.51;46.78
84340;SHT30;74521;45.618;5.212;2024-01-10T08:49:43;19.50;46.73
84340;SHT30;74521;45.618;5.212;2024-01-10T08:52:10;19.51;46.73
84340;SHT30;74521;45.618;5.212;2024-01-10T08:54:37;19.51;46.74
84340;SHT30;74521;45.618;5.212;2024-01-10T08:57:04;19.50;46.75
84340;SHT30;74521;45.618;5.212;2024-01-10T08:59:32;19.51;46.75
84340;SHT30;74521;45.618;5.212;2024-01-10T09:01:58;19.50;46.72
84340;SHT30;74521;45.618;5.212;2024-01-10T09:04:25;19.48;46.72
84340;SHT30;74521;45.618;5.212;2024-01-10T09:06:52;19.50;46.84
84340;SHT30;74521;45.618;5.212;2024-01-10T09:09:18;19.48;46.86
84340;SHT30;74521;45.618;5.212;2024-01-10T09:11:46;19.50;46.93
84340;SHT30;74521;45.618;5.212;2024-01-10T09:14:13;19.51;46.92
84340;SHT30;74521;45.618;5.212;2024-01-10T09:16:41;19.48;46.87
84340;SHT30;74521;45.618;5.212;2024-01-10T09:19:08;19.50;46.83
84340;SHT30;74521;45.618;5.212;2024-01-10T09:21:35;19.50;46.81
84340;SHT30;74521;45.618;5.212;2024-01-10T09:24:02;19.51;46.79
84340;SHT30;74521;45.618;5.212;2024-01-10T09:26:30;19.51;46.85
84340;SHT30;74521;45.618;5.212;2024-01-10T09:28:57;19.50;46.89
84340;SHT30;74521;45.618;5.212;2024-01-10T09:31:24;19.51;46.79
84340;SHT30;74521;45.618;5.212;2024-01-10T09:33:52;19.50;46.78
84340;SHT30;74521;45.618;5.212;2024-01-10T09:36:19;19.53;46.80
84340;SHT30;74521;45.618;5.212;2024-01-10T09:38:45;19.50;46.87
84340;SHT30;74521;45.618;5.212;2024-01-10T09:41:12;19.53;46.91
84340;SHT30;74521;45.618;5.212;2024-01-10T09:43:39;19.53;46.95
84340;SHT30;74521;45.618;5.212;2024-01-10T09:46:07;19.51;46.85
84340;SHT30;74521;45.618;5.212;2024-01-10T09:48:35;19.54;46.85
84340;SHT30;74521;45.618;5.212;2024-01-10T09:51:03;19.54;46.78
84340;SHT30;74521;45.618;5.212;2024-01-10T09:53:31;19.57;46.80
84340;SHT30;74521;45.618;5.212;2024-01-10T09:56:03;19.55;46.77
84340;SHT30;74521;45.618;5.212;2024-01-10T09:58:31;19.57;46.77
84340;SHT30;74521;45.618;5.212;2024-01-10T10:01:04;19.55;46.76
84340;SHT30;74521;45.618;5.212;2024-01-10T10:03:33;19.57;46.76
84340;SHT30;74521;45.618;5.212;2024-01-10T10:06:04;19.54;46.63
84340;SHT30;74521;45.618;5.212;2024-01-10T10:08:30;19.55;46.75
84340;SHT30;74521;45.618;5.212;2024-01-10T10:10:57;19.55;46.84
84340;SHT30;74521;45.618;5.212;2024-01-10T10:13:25;19.55;46.84
84340;SHT30;74521;45.618;5.212;2024-01-10T10:15:57;19.54;46.84
84340;SHT30;74521;45.618;5.212;2024-01-10T10:18:25;19.55;46.82
84340;SHT30;74521;45.618;5.212;2024-01-10T10:21:06;19.57;46.78
84340;SHT30;74521;45.618;5.212;2024-01-10T10:23:32;19.57;46.77
84340;SHT30;74521;45.618;5.212;2024-01-10T10:26:10;19.55;46.70
84340;SHT30;74521;45.618;5.212;2024-01-10T10:28:39;19.55;46.69
84340;SHT30;74521;45.618;5.212;2024-01-10T10:31:06;19.57;46.70
84340;SHT30;74521;45.618;5.212;2024-01-10T10:33:33;19.55;46.63
84340;SHT30;74521;45.618;5.212;2024-01-10T10:36:00;19.55;46.67
84340;SHT30;74521;45.618;5.212;2024-01-10T10:38:28;19.57;46.69
84340;SHT30;74521;45.618;5.212;2024-01-10T10:40:55;19.55;46.72
84340;SHT30;74521;45.618;5.212;2024-01-10T10:43:22;19.54;46.76
84340;SHT30;74521;45.618;5.212;2024-01-10T10:45:49;19.55;46.78
84340;SHT30;74521;45.618;5.212;2024-01-10T10:48:17;19.57;46.72
84340;SHT30;74521;45.618;5.212;2024-01-10T10:50:50;19.57;46.72
84340;SHT30;74521;45.618;5.212;2024-01-10T10:53:21;19.57;46.67
84340;SHT30;74521;45.618;5.212;2024-01-10T10:55:50;19.57;46.74
84340;SHT30;74521;45.618;5.212;2024-01-10T10:58:18;19.54;46.71
84340;SHT30;74521;45.618;5.212;2024-01-10T11:00:45;19.55;46.67
84340;SHT30;74521;45.618;5.212;2024-01-10T11:03:14;19.53;46.65
84340;SHT30;74521;45.618;5.212;2024-01-10T11:05:46;19.53;46.64
84340;SHT30;74521;45.618;5.212;2024-01-10T11:08:16;19.53;46.69
84340;SHT30;74521;45.618;5.212;2024-01-10T11:10:46;19.54;46.74
84340;SHT30;74521;45.618;5.212;2024-01-10T11:13:41;19.54;46.75
84340;SHT30;74521;45.618;5.212;2024-01-10T11:16:43;19.54;46.70
84340;SHT30;74521;45.618;5.212;2024-01-10T11:22:18;19.57;46.69
84340;SHT30;74521;45.618;5.212;2024-01-10T11:24:48;19.54;46.78
84340;SHT30;74521;45.618;5.212;2024-01-10T11:27:15;19.55;46.73
84340;SHT30;74521;45.618;5.212;2024-01-10T11:29:46;19.54;46.76
84340;SHT30;74521;45.618;5.212;2024-01-10T11:32:14;19.57;46.68
84340;SHT30;74521;45.618;5.212;2024-01-10T11:34:49;19.53;46.65
84340;SHT30;74521;45.618;5.212;2024-01-10T11:37:16;19.54;46.68
84340;SHT30;74521;45.618;5.212;2024-01-10T11:39:44;19.54;46.72
84340;SHT30;74521;45.618;5.212;2024-01-10T11:42:11;19.55;46.74
84340;SHT30;74521;45.618;5.212;2024-01-10T11:44:51;19.55;46.76
84340;SHT30;74521;45.618;5.212;2024-01-10T11:47:19;19.59;46.74
84340;SHT30;74521;45.618;5.212;2024-01-10T11:49:56;19.59;46.74
84340;SHT30;74521;45.618;5.212;2024-01-10T11:52:23;19.59;46.77
84340;SHT30;74521;45.618;5.212;2024-01-10T11:54:50;19.59;46.72
84340;SHT30;74521;45.618;5.212;2024-01-10T11:57:21;19.57;46.70
84340;SHT30;74521;45.618;5.212;2024-01-10T11:59:51;19.58;46.72
84340;SHT30;74521;45.618;5.212;2024-01-10T12:02:20;19.59;46.69
84340;SHT30;74521;45.618;5.212;2024-01-10T12:04:47;19.59;46.65
84340;SHT30;74521;45.618;5.212;2024-01-10T12:07:15;19.61;46.70
84340;SHT30;74521;45.618;5.212;2024-01-10T12:09:42;19.58;46.67
84340;SHT30;74521;45.618;5.212;2024-01-10T12:12:09;19.57;46.71
84340;SHT30;74521;45.618;5.212;2024-01-10T12:14:36;19.57;46.76
84340;SHT30;74521;45.618;5.212;2024-01-10T12:17:05;19.57;46.82
84340;SHT30;74521;45.618;5.212;2024-01-10T12:19:34;19.61;46.69
84340;SHT30;74521;45.618;5.212;2024-01-10T12:22:01;19.59;46.72
84340;SHT30;74521;45.618;5.212;2024-01-10T12:24:28;19.59;46.71
84340;SHT30;74521;45.618;5.212;2024-01-10T12:26:56;19.61;46.69
84340;SHT30;74521;45.618;5.212;2024-01-10T12:29:22;19.61;46.61
84340;SHT30;74521;45.618;5.212;2024-01-10T12:31:50;19.61;46.65
84340;SHT30;74521;45.618;5.212;2024-01-10T12:34:19;19.61;46.66
84340;SHT30;74521;45.618;5.212;2024-01-10T12:36:46;19.61;46.66
84340;SHT30;74521;45.618;5.212;2024-01-10T12:39:13;19.61;46.67
84340;SHT30;74521;45.618;5.212;2024-01-10T12:41:40;19.61;46.62
84340;SHT30;74521;45.618;5.212;2024-01-10T12:44:07;19.61;46.67
84340;SHT30;74521;45.618;5.212;2024-01-10T12:46:34;19.59;46.76
84340;SHT30;74521;45.618;5.212;2024-01-10T12:49:02;19.62;46.71
84340;SHT30;74521;45.618;5.212;2024-01-10T12:51:32;19.61;46.69
84340;SHT30;74521;45.618;5.212;2024-01-10T12:54:02;19.64;46.66
84340;SHT30;74521;45.618;5.212;2024-01-10T12:56:29;19.65;46.66
84340;SHT30;74521;45.618;5.212;2024-01-10T12:58:56;19.64;46.64
84340;SHT30;74521;45.618;5.212;2024-01-10T13:01:23;19.64;46.62
84340;SHT30;74521;45.618;5.212;2024-01-10T13:03:50;19.64;46.63
84340;SHT30;74521;45.618;5.212;2024-01-10T13:06:18;19.64;46.59
84340;SHT30;74521;45.618;5.212;2024-01-10T13:08:48;19.64;46.59
84340;SHT30;74521;45.618;5.212;2024-01-10T13:11:15;19.61;46.59
84340;SHT30;74521;45.618;5.212;2024-01-10T13:13:42;19.61;46.59
84340;SHT30;74521;45.618;5.212;2024-01-10T13:16:09;19.62;46.64
84340;SHT30;74521;45.618;5.212;2024-01-10T13:18:37;19.62;46.69
84340;SHT30;74521;45.618;5.212;2024-01-10T13:21:04;19.61;46.71
84340;SHT30;74521;45.618;5.212;2024-01-10T13:23:31;19.65;46.70
84340;SHT30;74521;45.618;5.212;2024-01-10T13:26:00;19.64;46.67
84340;SHT30;74521;45.618;5.212;2024-01-10T13:28:27;19.64;46.59
84340;SHT30;74521;45.618;5.212;2024-01-10T13:30:55;19.65;46.64
84340;SHT30;74521;45.618;5.212;2024-01-10T13:33:22;19.65;46.59
84340;SHT30;74521;45.618;5.212;2024-01-10T13:35:51;19.68;46.63
84340;SHT30;74521;45.618;5.212;2024-01-10T13:38:17;19.65;46.66
84340;SHT30;74521;45.618;5.212;2024-01-10T13:40:44;19.67;46.63
84340;SHT30;74521;45.618;5.212;2024-01-10T13:43:12;19.68;46.61
84340;SHT30;74521;45.618;5.212;2024-01-10T13:45:40;19.68;46.62
84340;SHT30;74521;45.618;5.212;2024-01-10T13:48:07;19.64;46.62
84340;SHT30;74521;45.618;5.212;2024-01-10T13:50:35;19.67;46.69
84340;SHT30;74521;45.618;5.212;2024-01-10T13:53:02;19.65;46.71
84340;SHT30;74521;45.618;5.212;2024-01-10T13:55:29;19.65;46.68
84340;SHT30;74521;45.618;5.212;2024-01-10T13:57:56;19.67;46.65
84340;SHT30;74521;45.618;5.212;2024-01-10T14:00:24;19.67;46.63
84340;SHT30;74521;45.618;5.212;2024-01-10T14:02:51;19.68;46.62
84340;SHT30;74521;45.618;5.212;2024-01-10T14:05:24;19.67;46.60
84340;SHT30;74521;45.618;5.212;2024-01-10T14:07:50;19.68;46.63
84340;SHT30;74521;45.618;5.212;2024-01-10T14:10:17;19.68;46.66
84340;SHT30;74521;45.618;5.212;2024-01-10T14:12:44;19.67;46.68
84340;SHT30;74521;45.618;5.212;2024-01-10T14:15:11;19.64;46.63
84340;SHT30;74521;45.618;5.212;2024-01-10T14:17:40;19.65;46.64
84340;SHT30;74521;45.618;5.212;2024-01-10T14:20:07;19.64;46.64
84340;SHT30;74521;45.618;5.212;2024-01-10T14:22:35;19.67;46.70
84340;SHT30;74521;45.618;5.212;2024-01-10T14:25:01;19.67;46.68
84340;SHT30;74521;45.618;5.212;2024-01-10T14:27:28;19.69;46.68
84340;SHT30;74521;45.618;5.212;2024-01-10T14:29:55;19.68;46.64
84340;SHT30;74521;45.618;5.212;2024-01-10T14:32:22;19.69;46.63
84340;SHT30;74521;45.618;5.212;2024-01-10T14:34:50;19.72;46.56
84340;SHT30;74521;45.618;5.212;2024-01-10T14:37:16;19.68;46.62
84340;SHT30;74521;45.618;5.212;2024-01-10T14:39:43;19.71;46.60
84340;SHT30;74521;45.618;5.212;2024-01-10T14:42:10;19.68;46.66
84340;SHT30;74521;45.618;5.212;2024-01-10T14:44:36;19.67;46.61
84340;SHT30;74521;45.618;5.212;2024-01-10T14:47:03;19.68;46.57
84340;SHT30;74521;45.618;5.212;2024-01-10T14:49:30;19.67;46.54
84340;SHT30;74521;45.618;5.212;2024-01-10T14:51:59;19.65;46.62
84340;SHT30;74521;45.618;5.212;2024-01-10T14:54:25;19.65;46.67
84340;SHT30;74521;45.618;5.212;2024-01-10T14:56:52;19.68;46.68
84340;SHT30;74521;45.618;5.212;2024-01-10T14:59:19;19.67;46.63
84340;SHT30;74521;45.618;5.212;2024-01-10T15:01:46;19.67;46.63
84340;SHT30;74521;45.618;5.212;2024-01-10T15:04:13;19.68;46.60
84340;SHT30;74521;45.618;5.212;2024-01-10T15:06:44;19.69;46.58
84340;SHT30;74521;45.618;5.212;2024-01-10T15:09:13;19.72;46.60
84340;SHT30;74521;45.618;5.212;2024-01-10T15:11:40;19.68;46.56
84340;SHT30;74521;45.618;5.212;2024-01-10T15:14:07;19.68;46.54
84340;SHT30;74521;45.618;5.212;2024-01-10T15:16:34;19.71;46.54
84340;SHT30;74521;45.618;5.212;2024-01-10T15:19:01;19.69;46.47
84340;SHT30;74521;45.618;5.212;2024-01-10T15:21:27;19.71;46.47
84340;SHT30;74521;45.618;5.212;2024-01-10T15:23:55;19.71;46.48
84340;SHT30;74521;45.618;5.212;2024-01-10T15:26:23;19.67;46.57
84340;SHT30;74521;45.618;5.212;2024-01-10T15:28:50;19.68;46.58
84340;SHT30;74521;45.618;5.212;2024-01-10T15:31:19;19.68;46.61
84340;SHT30;74521;45.618;5.212;2024-01-10T15:33:46;19.69;46.58
84340;SHT30;74521;45.618;5.212;2024-01-10T15:36:14;19.69;46.56